createdAt,value
2023-01-10T00:02:33.551Z,100037.78
2023-01-10T00:07:34.864Z,100049.53
2023-01-10T00:12:54.840Z,100059.44
2023-01-10T00:17:56.122Z,100072.22
2023-01-10T00:22:57.582Z,100083.44
2023-01-10T00:28:11.158Z,100103.22
2023-01-10T00:33:18.777Z,100123.06
2023-01-10T00:38:19.970Z,100138.19
2023-01-10T00:43:39.818Z,100144.69
2023-01-10T00:48:41.433Z,100156.72
2023-01-10T00:53:42.595Z,100164.28
2023-01-10T00:58:44.821Z,100179.41
2023-01-10T01:03:45.987Z,100188.28
2023-01-10T01:08:47.203Z,100191.66
2023-01-10T01:13:48.399Z,100196.09
2023-01-10T01:18:49.584Z,100210.69
2023-01-10T01:23:51.843Z,100213.03
2023-01-10T01:28:52.992Z,100230.75
2023-01-10T01:33:54.183Z,100237.56
2023-01-10T01:38:55.478Z,100253.97
2023-01-10T01:43:56.619Z,100255.56
2023-01-10T01:48:57.811Z,100264.91
2023-01-10T01:53:58.957Z,100265.97
2023-01-10T01:59:00.133Z,100276.41
2023-01-10T02:04:01.355Z,100288.38
2023-01-10T02:09:02.525Z,100292.81
2023-01-10T02:14:03.669Z,100300.91
2023-01-10T02:19:04.877Z,100293.34
2023-01-10T02:24:06.010Z,100294.66
2023-01-10T02:29:07.216Z,100302.72
2023-01-10T02:34:08.386Z,100319.16
2023-01-10T02:39:09.561Z,100318.63
2023-01-10T02:44:10.763Z,100324.09
2023-01-10T02:49:11.924Z,100328.00
2023-01-10T02:54:13.170Z,100331.41
2023-01-10T02:59:14.375Z,100330.59
2023-01-10T03:04:15.672Z,100338.16
2023-01-10T03:09:17.000Z,100338.97
2023-01-10T03:14:18.158Z,100343.63
2023-01-10T03:19:19.290Z,100355.63
2023-01-10T03:24:20.432Z,100362.13
2023-01-10T03:29:21.688Z,100376.41
2023-01-10T03:34:22.922Z,100376.94
2023-01-10T03:39:24.132Z,100380.06
2023-01-10T03:44:43.662Z,100378.50
2023-01-10T03:49:45.200Z,100390.22
2023-01-10T03:54:46.469Z,100403.75
2023-01-10T03:59:47.640Z,100410.78
2023-01-10T04:04:48.985Z,100418.59
2023-01-10T04:09:50.178Z,100431.25
2023-01-10T04:14:51.382Z,100435.34
2023-01-10T04:19:52.609Z,100441.34
2023-01-10T04:24:54.484Z,100453.59
2023-01-10T04:29:55.737Z,100457.28
2023-01-10T04:34:56.944Z,100453.34
2023-01-10T04:39:58.089Z,100458.84
2023-01-10T04:44:59.298Z,100456.03
2023-01-10T04:50:00.515Z,100463.88
2023-01-10T04:55:01.731Z,100471.19
2023-01-10T05:00:02.920Z,100483.72
2023-01-10T05:05:04.088Z,100487.34
2023-01-10T05:10:05.303Z,100491.00
2023-01-10T05:15:06.466Z,100485.25
2023-01-10T05:20:07.673Z,100494.63
2023-01-10T05:25:08.929Z,100504.56
2023-01-10T05:30:10.107Z,100508.75
2023-01-10T05:35:11.306Z,100501.97
2023-01-10T05:40:12.513Z,100510.28
2023-01-10T05:45:13.677Z,100526.41
2023-01-10T05:50:14.875Z,100535.19
2023-01-10T05:55:16.059Z,100541.97
2023-01-10T06:00:17.599Z,100535.19
2023-01-10T06:05:18.766Z,100534.63
2023-01-10T06:10:20.013Z,100547.59
2023-01-10T06:15:21.221Z,100568.44
2023-01-10T06:20:22.408Z,100572.63
2023-01-10T06:25:23.620Z,100584.63
2023-01-10T06:30:24.788Z,100593.22
2023-01-10T06:35:25.966Z,100584.66
2023-01-10T06:40:27.091Z,100611.25
2023-01-10T06:45:28.315Z,100606.03
2023-01-10T06:50:29.536Z,100618.00
2023-01-10T06:55:30.856Z,100620.09
2023-01-10T07:00:32.365Z,100628.69
2023-01-10T07:05:33.520Z,100627.91
2023-01-10T07:10:34.717Z,100640.91
2023-01-10T07:15:35.861Z,100653.72
2023-01-10T07:20:37.264Z,100653.22
2023-01-10T07:25:38.527Z,100662.38
2023-01-10T07:30:39.788Z,100672.53
2023-01-10T07:35:41.070Z,100675.13
2023-01-10T07:40:42.303Z,100686.88
2023-01-10T07:45:43.465Z,100689.50
2023-01-10T07:50:44.982Z,100690.03
2023-01-10T07:55:46.200Z,100695.78
2023-01-10T08:00:50.164Z,100706.75
2023-01-10T08:05:51.376Z,100705.22
2023-01-10T08:10:52.579Z,100712.56
2023-01-10T08:15:53.851Z,100718.53
2023-01-10T08:20:55.168Z,100723.50
2023-01-10T08:25:56.381Z,100738.91
2023-01-10T08:30:57.775Z,100743.69
2023-01-10T08:35:58.932Z,100746.03
2023-01-10T08:41:00.137Z,100752.28
2023-01-10T08:46:01.302Z,100751.66
2023-01-10T08:51:02.753Z,100755.66
2023-01-10T08:56:05.648Z,100763.38
2023-01-10T09:01:07.099Z,100758.16
2023-01-10T09:06:08.625Z,100759.78
2023-01-10T09:11:09.826Z,100754.69
2023-01-10T09:16:10.988Z,100760.84
2023-01-10T09:21:12.160Z,100764.88
2023-01-10T09:26:13.338Z,100767.66
2023-01-10T09:31:14.545Z,100758.69
2023-01-10T09:36:16.060Z,100772.16
2023-01-10T09:41:17.317Z,100775.72
2023-01-10T09:46:18.526Z,100771.91
2023-01-10T09:51:20.142Z,100761.28
2023-01-10T09:56:21.401Z,100779.59
2023-01-10T10:01:22.711Z,100783.53
2023-01-10T10:06:23.977Z,100780.72
2023-01-10T10:11:25.181Z,100774.25
2023-01-10T10:16:26.367Z,100770.69
2023-01-10T10:21:27.679Z,100767.34
2023-01-10T10:26:28.867Z,100757.16
2023-01-10T10:31:30.105Z,100749.84
2023-01-10T10:36:31.277Z,100742.03
2023-01-10T10:41:32.808Z,100743.31
2023-01-10T10:46:34.016Z,100743.31
2023-01-10T10:51:35.236Z,100757.16
2023-01-10T10:56:36.589Z,100744.88
2023-01-10T11:01:37.905Z,100730.41
2023-01-10T11:06:40.665Z,100726.25
2023-01-10T11:11:42.401Z,100721.81
2023-01-10T11:16:44.972Z,100727.31
2023-01-10T11:21:46.223Z,100725.25
2023-01-10T11:26:47.368Z,100700.38
2023-01-10T11:31:48.582Z,100696.19
2023-01-10T11:36:49.775Z,100697.53
2023-01-10T11:41:53.271Z,100695.91
2023-01-10T11:46:54.535Z,100688.84
2023-01-10T11:51:55.684Z,100687.56
2023-01-10T11:56:56.831Z,100687.56
2023-01-10T12:01:58.295Z,100682.31
2023-01-10T12:06:59.723Z,100678.13
2023-01-10T12:12:00.905Z,100664.50
2023-01-10T12:17:02.277Z,100667.09
2023-01-10T12:22:03.540Z,100666.56
2023-01-10T12:27:04.752Z,100676.00
2023-01-10T12:32:05.966Z,100670.81
2023-01-10T12:37:07.189Z,100669.25
2023-01-10T12:42:26.932Z,100668.72
2023-01-10T12:47:28.148Z,100655.66
2023-01-10T12:52:29.368Z,100651.69
2023-01-10T12:57:30.553Z,100649.09
2023-01-10T13:02:31.781Z,100633.41
2023-01-10T13:07:33.117Z,100631.06
2023-01-10T13:12:35.310Z,100627.41
2023-01-10T13:17:36.526Z,100616.13
2023-01-10T13:22:37.740Z,100613.78
2023-01-10T13:27:38.876Z,100620.09
2023-01-10T13:32:40.088Z,100619.00
2023-01-10T13:37:41.323Z,100609.09
2023-01-10T13:43:01.391Z,100609.38
2023-01-10T13:48:03.266Z,100601.25
2023-01-10T13:53:04.679Z,100603.09
2023-01-10T13:58:06.006Z,100592.13
2023-01-10T14:03:07.217Z,100592.38
2023-01-10T14:08:08.445Z,100584.53
2023-01-10T14:13:09.649Z,100568.59
2023-01-10T14:18:10.860Z,100561.03
2023-01-10T14:23:12.147Z,100553.97
2023-01-10T14:28:13.372Z,100558.41
2023-01-10T14:33:14.605Z,100555.78
2023-01-10T14:38:15.770Z,100547.41
2023-01-10T14:43:17.190Z,100536.19
2023-01-10T14:48:18.504Z,100532.53
2023-01-10T14:53:19.673Z,100523.63
2023-01-10T14:58:22.713Z,100516.06
2023-01-10T15:03:24.393Z,100502.72
2023-01-10T15:08:25.565Z,100504.06
2023-01-10T15:13:28.166Z,100501.19
2023-01-10T15:18:29.509Z,100453.34
2023-01-10T15:23:30.708Z,100495.41
2023-01-10T15:28:31.901Z,100490.19
2023-01-10T15:33:33.112Z,100479.75
2023-01-10T15:38:34.339Z,100469.28
2023-01-10T15:43:35.611Z,100462.25
2023-01-10T15:48:36.846Z,100449.22
2023-01-10T15:53:38.048Z,100440.31
2023-01-10T15:58:39.228Z,100429.88
2023-01-10T16:03:40.522Z,100415.78
2023-01-10T16:08:41.797Z,100404.28
2023-01-10T16:13:42.923Z,100405.34
2023-01-10T16:18:44.092Z,100402.72
2023-01-10T16:23:47.038Z,100405.03
2023-01-10T16:28:48.251Z,100378.69
2023-01-10T16:33:49.616Z,100378.66
2023-01-10T16:38:50.831Z,100365.59
2023-01-10T16:43:52.198Z,100377.28
2023-01-10T16:48:54.865Z,100370.25
2023-01-10T16:53:56.119Z,100351.44
2023-01-10T16:58:57.443Z,100349.03
2023-01-10T17:03:58.693Z,100342.53
2023-01-10T17:08:59.934Z,100330.00
2023-01-10T17:14:01.127Z,100346.16
2023-01-10T17:19:02.283Z,100332.59
2023-01-10T17:24:03.487Z,100339.66
2023-01-10T17:29:04.692Z,100343.03
2023-01-10T17:34:05.902Z,100350.31
2023-01-10T17:39:07.069Z,100346.94
2023-01-10T17:44:08.200Z,100339.63
2023-01-10T17:49:09.715Z,100333.63
2023-01-10T17:54:11.780Z,100330.50
2023-01-10T17:59:13.051Z,100311.72
2023-01-10T18:04:14.254Z,100303.66
2023-01-10T18:09:15.412Z,100293.22
2023-01-10T18:14:35.496Z,100288.00
2023-01-10T18:19:36.707Z,100283.06
2023-01-10T18:24:37.899Z,100281.47
2023-01-10T18:29:39.109Z,100280.19
2023-01-10T18:34:40.285Z,100265.59
2023-01-10T18:39:43.484Z,100269.25
2023-01-10T18:44:44.711Z,100246.06
2023-01-10T18:49:47.584Z,100243.72
2023-01-10T18:54:48.753Z,100232.50
2023-01-10T18:59:50.002Z,100219.47
2023-01-10T19:04:51.480Z,100217.91
2023-01-10T19:09:52.636Z,100211.66
2023-01-10T19:14:53.811Z,100205.91
2023-01-10T19:19:55.041Z,100198.34
2023-01-10T19:24:56.195Z,100193.13
2023-01-10T19:29:57.413Z,100185.88
2023-01-10T19:34:58.632Z,100181.44
2023-01-10T19:39:59.805Z,100171.78
2023-01-10T19:45:00.956Z,100168.16
2023-01-10T19:50:02.150Z,100172.03
2023-01-10T19:55:03.365Z,100164.78
2023-01-10T20:00:04.531Z,100156.41
2023-01-10T20:05:05.736Z,100162.19
2023-01-10T20:10:06.907Z,100155.91
2023-01-10T20:15:08.341Z,100152.78
2023-01-10T20:20:09.540Z,100154.38
2023-01-10T20:25:10.714Z,100154.38
2023-01-10T20:30:13.950Z,100144.44
2023-01-10T20:35:15.137Z,100141.06
2023-01-10T20:40:16.342Z,100131.94
2023-01-10T20:45:17.498Z,100131.41
2023-01-10T20:50:19.329Z,100136.88
2023-01-10T20:55:21.533Z,100135.59
2023-01-10T21:00:22.757Z,100127.78
2023-01-10T21:05:23.941Z,100133.53
2023-01-10T21:10:25.177Z,100115.81
2023-01-10T21:15:26.388Z,100111.59
2023-01-10T21:20:27.718Z,100106.94
2023-01-10T21:25:28.897Z,100099.38
2023-01-10T21:30:30.058Z,100101.72
2023-01-10T21:35:31.245Z,100083.97
2023-01-10T21:40:32.487Z,100081.88
2023-01-10T21:45:33.640Z,100083.72
2023-01-10T21:50:34.848Z,100083.97
2023-01-10T21:55:36.536Z,100069.59
2023-01-10T22:00:37.834Z,100066.19
2023-01-10T22:05:39.159Z,100065.13
2023-01-10T22:10:40.450Z,100050.50
2023-01-10T22:15:42.633Z,100054.66
2023-01-10T22:20:43.884Z,100050.44
2023-01-10T22:25:45.087Z,100051.50
2023-01-10T22:30:46.251Z,100039.47
2023-01-10T22:35:47.448Z,100041.50
2023-01-10T22:40:48.586Z,100034.72
2023-01-10T22:45:49.859Z,100016.16
2023-01-10T22:50:51.337Z,100015.38
2023-01-10T22:55:52.499Z,100001.84
2023-01-10T23:00:53.676Z,99998.19
2023-01-10T23:05:56.098Z,99993.72
2023-01-10T23:10:57.283Z,99990.63
2023-01-10T23:15:58.449Z,99977.34
2023-01-10T23:20:59.627Z,99976.81
2023-01-10T23:26:03.882Z,99972.66
2023-01-10T23:31:05.126Z,99961.16
2023-01-10T23:36:06.277Z,99952.28
2023-01-10T23:41:07.436Z,99942.84
2023-01-10T23:46:08.675Z,99942.53
2023-01-10T23:51:11.280Z,99941.75
2023-01-10T23:56:12.483Z,99928.16
